createdAt,value
2023-05-09T00:00:46.518Z,54.23
2023-05-09T00:03:14.413Z,54.14
2023-05-09T00:05:41.888Z,54.19
2023-05-09T00:08:09.053Z,54.20
2023-05-09T00:10:35.883Z,54.33
2023-05-09T00:13:02.825Z,54.43
2023-05-09T00:15:30.595Z,54.53
2023-05-09T00:17:57.538Z,54.62
2023-05-09T00:20:24.534Z,54.63
2023-05-09T00:22:51.697Z,54.73
2023-05-09T00:25:18.596Z,54.74
2023-05-09T00:27:45.433Z,54.75
2023-05-09T00:30:12.794Z,54.84
2023-05-09T00:32:41.360Z,54.89
2023-05-09T00:35:10.135Z,54.97
2023-05-09T00:37:37.156Z,54.96
2023-05-09T00:40:06.551Z,55.06
2023-05-09T00:42:33.855Z,55.04
2023-05-09T00:45:00.919Z,55.03
2023-05-09T00:47:29.026Z,55.12
2023-05-09T00:49:57.469Z,55.22
2023-05-09T00:52:27.492Z,55.22
2023-05-09T00:54:55.627Z,55.22
2023-05-09T00:57:23.370Z,55.29
2023-05-09T00:59:50.376Z,55.42
2023-05-09T01:02:20.286Z,55.43
2023-05-09T01:04:47.686Z,55.44
2023-05-09T01:07:28.242Z,55.55
2023-05-09T01:10:22.124Z,55.67
2023-05-09T01:12:59.066Z,55.66
2023-05-09T01:15:36.716Z,55.73
2023-05-09T01:18:21.920Z,55.78
2023-05-09T01:21:04.109Z,55.83
2023-05-09T01:23:55.795Z,55.88
2023-05-09T01:26:32.276Z,55.94
2023-05-09T01:29:27.849Z,55.77
2023-05-09T01:31:56.715Z,55.83
2023-05-09T01:34:27.126Z,55.94
2023-05-09T01:36:58.776Z,56.05
2023-05-09T01:39:27.177Z,56.10
2023-05-09T01:41:56.882Z,56.04
2023-05-09T01:44:25.457Z,56.10
2023-05-09T01:46:54.811Z,56.12
2023-05-09T01:49:22.827Z,56.15
2023-05-09T01:51:50.835Z,56.28
2023-05-09T01:54:18.749Z,56.15
2023-05-09T01:56:46.958Z,56.24
2023-05-09T01:59:16.481Z,56.28
2023-05-09T02:01:46.321Z,56.17
2023-05-09T02:04:16.371Z,56.28
2023-05-09T02:06:44.850Z,56.29
2023-05-09T02:09:13.199Z,56.24
2023-05-09T02:11:40.127Z,56.40
2023-05-09T02:14:07.417Z,56.37
2023-05-09T02:16:35.573Z,56.36
2023-05-09T02:19:02.673Z,56.48
2023-05-09T02:21:29.541Z,56.30
2023-05-09T02:23:56.861Z,56.41
2023-05-09T02:26:25.909Z,56.30
2023-05-09T02:28:53.575Z,56.35
2023-05-09T02:31:22.790Z,56.57
2023-05-09T02:33:51.878Z,56.58
2023-05-09T02:36:19.773Z,56.54
2023-05-09T02:38:47.057Z,56.44
2023-05-09T02:41:17.549Z,56.55
2023-05-09T02:43:44.767Z,56.50
2023-05-09T02:46:11.846Z,56.66
2023-05-09T02:48:38.699Z,56.67
2023-05-09T02:51:05.676Z,56.44
2023-05-09T02:53:32.506Z,56.54
2023-05-09T02:55:59.302Z,56.40
2023-05-09T02:58:26.145Z,56.38
2023-05-09T03:00:52.933Z,56.46
2023-05-09T03:03:19.886Z,56.49
2023-05-09T03:05:46.693Z,56.54
2023-05-09T03:08:13.491Z,56.66
2023-05-09T03:10:40.289Z,56.55
2023-05-09T03:13:07.083Z,56.53
2023-05-09T03:15:33.964Z,56.60
2023-05-09T03:18:00.902Z,56.54
2023-05-09T03:20:27.874Z,56.52
2023-05-09T03:22:54.786Z,56.52
2023-05-09T03:25:22.517Z,56.54
2023-05-09T03:27:49.500Z,56.56
2023-05-09T03:30:16.526Z,56.55
2023-05-09T03:32:43.470Z,56.45
2023-05-09T03:35:10.327Z,56.45
2023-05-09T03:37:37.153Z,56.35
2023-05-09T03:40:04.392Z,56.49
2023-05-09T03:42:31.223Z,56.57
2023-05-09T03:44:58.126Z,56.40
2023-05-09T03:47:24.999Z,56.49
2023-05-09T03:49:53.609Z,56.44
2023-05-09T03:52:20.427Z,56.25
2023-05-09T03:54:47.396Z,56.16
2023-05-09T03:57:14.205Z,56.22
2023-05-09T03:59:41.177Z,56.24
2023-05-09T04:02:08.097Z,56.12
2023-05-09T04:04:35.050Z,55.98
2023-05-09T04:07:01.872Z,55.95
2023-05-09T04:09:28.977Z,56.02
2023-05-09T04:11:55.752Z,55.95
2023-05-09T04:14:22.550Z,55.89
2023-05-09T04:16:49.452Z,55.90
2023-05-09T04:19:16.745Z,55.85
2023-05-09T04:21:43.589Z,55.94
2023-05-09T04:24:10.788Z,55.82
2023-05-09T04:26:39.085Z,55.80
2023-05-09T04:29:06.029Z,55.76
2023-05-09T04:31:33.014Z,55.64
2023-05-09T04:34:00.112Z,55.59
2023-05-09T04:36:27.885Z,55.57
2023-05-09T04:38:54.924Z,55.47
2023-05-09T04:41:21.767Z,55.49
2023-05-09T04:43:48.650Z,55.35
2023-05-09T04:46:15.452Z,55.21
2023-05-09T04:48:42.304Z,55.13
2023-05-09T04:51:09.218Z,55.13
2023-05-09T04:53:36.042Z,55.09
2023-05-09T04:56:03.010Z,55.06
2023-05-09T04:58:29.874Z,55.01
2023-05-09T05:00:56.733Z,54.91
2023-05-09T05:03:23.510Z,54.81
2023-05-09T05:05:50.933Z,54.76
2023-05-09T05:08:17.837Z,54.77
2023-05-09T05:10:44.667Z,54.68
2023-05-09T05:13:11.454Z,54.66
2023-05-09T05:15:38.242Z,54.57
2023-05-09T05:18:05.147Z,54.51
2023-05-09T05:20:32.135Z,54.43
2023-05-09T05:22:59.035Z,54.45
2023-05-09T05:25:26.694Z,54.40
2023-05-09T05:27:53.588Z,54.35
2023-05-09T05:30:21.112Z,54.29
2023-05-09T05:32:47.970Z,54.21
2023-05-09T05:35:15.212Z,54.12
2023-05-09T05:37:42.933Z,54.03
2023-05-09T05:40:10.384Z,53.95
2023-05-09T05:42:37.342Z,53.88
2023-05-09T05:45:04.693Z,53.82
2023-05-09T05:47:35.997Z,53.72
2023-05-09T05:50:07.051Z,53.57
2023-05-09T05:52:34.094Z,53.48
2023-05-09T05:55:01.159Z,53.37
2023-05-09T05:57:28.013Z,53.30
2023-05-09T05:59:54.811Z,53.23
2023-05-09T06:02:21.645Z,53.20
2023-05-09T06:04:48.488Z,53.14
2023-05-09T06:07:15.342Z,53.14
2023-05-09T06:09:42.297Z,53.15
2023-05-09T06:12:09.180Z,53.09
2023-05-09T06:14:36.003Z,53.05
2023-05-09T06:17:03.148Z,52.95
2023-05-09T06:19:30.068Z,52.83
2023-05-09T06:21:56.855Z,52.71
2023-05-09T06:24:35.119Z,52.62
2023-05-09T06:27:03.073Z,52.49
2023-05-09T06:29:29.910Z,52.34
2023-05-09T06:31:56.759Z,52.20
2023-05-09T06:34:23.751Z,52.05
2023-05-09T06:36:50.608Z,51.95
2023-05-09T06:39:17.406Z,51.81
2023-05-09T06:41:44.209Z,51.73
2023-05-09T06:44:11.110Z,51.66
2023-05-09T06:46:38.069Z,51.57
2023-05-09T06:49:06.170Z,51.53
2023-05-09T06:51:33.256Z,51.44
2023-05-09T06:54:00.117Z,51.39
2023-05-09T06:56:27.104Z,51.44
2023-05-09T06:58:54.119Z,51.37
2023-05-09T07:01:21.088Z,51.28
2023-05-09T07:03:47.906Z,51.33
2023-05-09T07:06:14.720Z,51.18
2023-05-09T07:08:41.577Z,51.07
2023-05-09T07:11:08.458Z,50.96
2023-05-09T07:13:35.355Z,50.95
2023-05-09T07:16:02.245Z,50.85
2023-05-09T07:18:47.706Z,50.79
2023-05-09T07:21:14.567Z,50.70
2023-05-09T07:23:41.426Z,50.56
2023-05-09T07:26:08.207Z,50.53
2023-05-09T07:28:35.007Z,50.54
2023-05-09T07:31:01.783Z,50.42
2023-05-09T07:33:28.555Z,50.32
2023-05-09T07:35:55.698Z,50.19
2023-05-09T07:38:22.494Z,50.06
2023-05-09T07:40:49.242Z,49.91
2023-05-09T07:43:16.066Z,49.74
2023-05-09T07:45:43.721Z,49.62
2023-05-09T07:48:10.733Z,49.55
2023-05-09T07:50:37.541Z,49.54
2023-05-09T07:53:04.327Z,49.53
2023-05-09T07:55:31.150Z,49.54
2023-05-09T07:57:58.227Z,49.42
2023-05-09T08:00:25.336Z,49.33
2023-05-09T08:02:52.534Z,49.21
2023-05-09T08:05:19.721Z,49.17
2023-05-09T08:07:46.618Z,49.08
2023-05-09T08:10:13.531Z,49.03
2023-05-09T08:12:40.416Z,49.11
2023-05-09T08:15:07.749Z,49.01
2023-05-09T08:17:34.587Z,48.89
2023-05-09T08:20:01.646Z,48.89
2023-05-09T08:22:28.470Z,48.87
2023-05-09T08:24:55.341Z,48.91
2023-05-09T08:27:22.115Z,48.85
2023-05-09T08:29:48.851Z,48.79
2023-05-09T08:32:15.715Z,48.71
2023-05-09T08:34:42.552Z,48.74
2023-05-09T08:37:09.365Z,48.62
2023-05-09T08:39:36.228Z,48.66
2023-05-09T08:42:03.264Z,48.59
2023-05-09T08:44:31.527Z,48.56
2023-05-09T08:47:03.148Z,48.51
2023-05-09T08:49:30.973Z,48.55
2023-05-09T08:51:58.040Z,48.49
2023-05-09T08:54:25.266Z,48.44
2023-05-09T08:56:52.259Z,48.39
2023-05-09T08:59:19.637Z,48.37
2023-05-09T09:01:47.547Z,48.32
2023-05-09T09:04:14.716Z,48.31
2023-05-09T09:06:42.397Z,48.41
2023-05-09T09:09:09.416Z,48.49
2023-05-09T09:11:38.897Z,48.42
2023-05-09T09:14:13.943Z,48.38
2023-05-09T09:16:42.885Z,48.30
2023-05-09T09:19:17.669Z,48.30
2023-05-09T09:21:47.214Z,48.43
2023-05-09T09:24:14.784Z,48.41
2023-05-09T09:26:47.539Z,48.39
2023-05-09T09:29:15.375Z,48.32
2023-05-09T09:31:46.167Z,48.37
2023-05-09T09:34:19.198Z,48.36
2023-05-09T09:36:47.016Z,48.23
2023-05-09T09:39:14.373Z,48.25
2023-05-09T09:41:42.373Z,48.25
2023-05-09T09:44:13.229Z,48.19
2023-05-09T09:46:50.677Z,48.13
2023-05-09T09:49:20.254Z,48.04
2023-05-09T09:51:52.176Z,48.04
2023-05-09T09:54:19.268Z,47.97
2023-05-09T09:56:47.982Z,47.89
2023-05-09T09:59:19.428Z,47.81
2023-05-09T10:01:59.790Z,47.71
2023-05-09T10:04:33.476Z,47.55
2023-05-09T10:07:06.036Z,47.44
2023-05-09T10:09:34.653Z,47.38
2023-05-09T10:12:06.559Z,47.31
2023-05-09T10:14:35.749Z,47.26
2023-05-09T10:17:05.287Z,47.24
2023-05-09T10:19:33.089Z,47.21
2023-05-09T10:22:05.698Z,47.16
2023-05-09T10:24:39.809Z,47.12
2023-05-09T10:27:10.471Z,47.13
2023-05-09T10:29:50.070Z,47.11
2023-05-09T10:32:27.637Z,47.11
2023-05-09T10:35:05.112Z,47.09
2023-05-09T10:37:33.407Z,47.07
2023-05-09T10:40:05.079Z,47.07
2023-05-09T10:42:32.501Z,47.04
2023-05-09T10:44:59.719Z,47.03
2023-05-09T10:47:28.170Z,46.99
2023-05-09T10:49:55.448Z,46.99
2023-05-09T10:52:22.861Z,46.95
2023-05-09T10:55:00.443Z,46.95
2023-05-09T10:57:30.248Z,46.93
2023-05-09T10:59:58.380Z,46.92
2023-05-09T11:02:33.966Z,46.90
2023-05-09T11:05:15.291Z,46.89
2023-05-09T11:07:43.443Z,46.88
2023-05-09T11:10:16.541Z,46.85
2023-05-09T11:13:01.535Z,46.85
2023-05-09T11:15:29.123Z,46.79
2023-05-09T11:18:10.595Z,46.71
2023-05-09T11:20:43.896Z,46.65
2023-05-09T11:23:12.000Z,46.49
2023-05-09T11:25:39.811Z,46.42
2023-05-09T11:28:06.646Z,46.38
2023-05-09T11:30:41.799Z,46.31
2023-05-09T11:33:27.350Z,46.23
2023-05-09T11:36:20.131Z,46.13
2023-05-09T11:38:47.989Z,46.03
2023-05-09T11:41:15.825Z,46.00
2023-05-09T11:43:44.787Z,45.95
2023-05-09T11:46:12.934Z,45.89
2023-05-09T11:48:41.983Z,45.83
2023-05-09T11:51:16.595Z,45.80
2023-05-09T11:53:46.863Z,45.80
2023-05-09T11:56:14.788Z,45.76
2023-05-09T11:58:42.316Z,45.72
2023-05-09T12:01:12.347Z,45.67
2023-05-09T12:03:44.910Z,45.59
2023-05-09T12:06:19.336Z,45.58
2023-05-09T12:08:47.129Z,45.46
2023-05-09T12:11:15.402Z,45.30
2023-05-09T12:13:49.539Z,45.30
2023-05-09T12:16:17.444Z,45.27
2023-05-09T12:18:49.664Z,45.26
2023-05-09T12:21:17.372Z,45.17
2023-05-09T12:23:45.080Z,45.09
2023-05-09T12:26:12.452Z,45.02
2023-05-09T12:28:39.766Z,44.88
2023-05-09T12:31:07.264Z,44.83
2023-05-09T12:33:34.689Z,44.70
2023-05-09T12:36:12.798Z,44.56
2023-05-09T12:38:39.913Z,44.42
2023-05-09T12:41:22.419Z,44.37
2023-05-09T12:43:58.574Z,44.26
2023-05-09T12:46:25.771Z,44.01
2023-05-09T12:48:52.700Z,43.99
2023-05-09T12:51:21.154Z,43.98
2023-05-09T12:53:48.753Z,44.01
2023-05-09T12:56:25.369Z,44.01
2023-05-09T12:58:54.411Z,43.72
2023-05-09T13:01:27.608Z,43.80
2023-05-09T13:04:03.912Z,43.93
2023-05-09T13:06:30.951Z,44.04
2023-05-09T13:09:01.759Z,44.13
2023-05-09T13:11:29.463Z,44.18
2023-05-09T13:13:56.374Z,44.32
2023-05-09T13:16:23.712Z,44.39
2023-05-09T13:18:50.476Z,44.51
2023-05-09T13:21:17.265Z,44.59
2023-05-09T13:23:45.525Z,44.68
2023-05-09T13:26:12.458Z,44.73
2023-05-09T13:28:39.303Z,44.97
2023-05-09T13:31:06.965Z,45.07
2023-05-09T13:33:34.061Z,45.17
2023-05-09T13:36:01.005Z,45.24
2023-05-09T13:38:30.996Z,45.22
2023-05-09T13:40:58.435Z,45.34
2023-05-09T13:43:25.762Z,45.25
2023-05-09T13:45:52.561Z,45.26
2023-05-09T13:48:19.350Z,45.37
2023-05-09T13:50:46.833Z,45.38
2023-05-09T13:53:13.740Z,45.43
2023-05-09T13:55:40.643Z,45.40
2023-05-09T13:58:07.721Z,45.69
2023-05-09T14:00:34.638Z,45.52
2023-05-09T14:03:04.417Z,45.57
2023-05-09T14:05:31.988Z,45.54
2023-05-09T14:07:58.869Z,45.94
2023-05-09T14:10:28.369Z,46.03
2023-05-09T14:12:55.306Z,45.99
2023-05-09T14:15:25.949Z,45.75
2023-05-09T14:17:52.852Z,46.17
2023-05-09T14:20:20.976Z,46.07
2023-05-09T14:22:48.326Z,46.05
2023-05-09T14:25:15.127Z,45.79
2023-05-09T14:27:41.974Z,45.78
2023-05-09T14:30:09.364Z,45.52
2023-05-09T14:32:36.289Z,45.15
2023-05-09T14:35:03.292Z,44.94
2023-05-09T14:37:30.436Z,44.61
2023-05-09T14:39:57.334Z,44.25
2023-05-09T14:42:24.210Z,44.20
2023-05-09T14:44:51.089Z,43.93
2023-05-09T14:47:17.938Z,44.00
2023-05-09T14:49:44.916Z,43.74
2023-05-09T14:52:12.190Z,43.53
2023-05-09T14:54:39.032Z,43.55
2023-05-09T14:57:07.608Z,43.37
2023-05-09T14:59:36.867Z,43.18
2023-05-09T15:02:04.079Z,43.11
2023-05-09T15:04:31.430Z,42.99
2023-05-09T15:06:59.179Z,43.18
2023-05-09T15:09:26.813Z,43.09
2023-05-09T15:11:54.933Z,42.97
2023-05-09T15:14:21.736Z,42.77
2023-05-09T15:16:48.673Z,42.77
2023-05-09T15:19:15.553Z,42.50
2023-05-09T15:21:42.392Z,42.01
2023-05-09T15:24:09.178Z,42.21
2023-05-09T15:26:36.001Z,42.01
2023-05-09T15:29:02.942Z,42.03
2023-05-09T15:31:32.773Z,42.16
2023-05-09T15:34:00.385Z,42.14
2023-05-09T15:36:30.126Z,42.10
2023-05-09T15:38:57.211Z,42.11
2023-05-09T15:41:24.273Z,42.09
2023-05-09T15:43:51.748Z,42.20
2023-05-09T15:46:22.012Z,42.04
2023-05-09T15:48:48.891Z,42.12
2023-05-09T15:51:15.968Z,42.14
2023-05-09T15:53:42.949Z,42.14
2023-05-09T15:56:09.818Z,42.28
2023-05-09T15:58:36.923Z,42.51
2023-05-09T16:01:06.234Z,42.54
2023-05-09T16:03:33.349Z,42.58
2023-05-09T16:06:00.660Z,42.45
2023-05-09T16:08:27.632Z,42.47
2023-05-09T16:10:54.576Z,42.41
2023-05-09T16:13:21.751Z,42.32
2023-05-09T16:15:50.195Z,42.22
2023-05-09T16:18:17.133Z,42.33
2023-05-09T16:20:44.180Z,42.34
2023-05-09T16:23:11.756Z,42.12
2023-05-09T16:25:38.831Z,42.16
2023-05-09T16:28:07.198Z,42.27
2023-05-09T16:30:34.448Z,42.35
2023-05-09T16:33:01.407Z,42.48
2023-05-09T16:35:28.533Z,42.61
2023-05-09T16:37:55.394Z,42.88
2023-05-09T16:40:22.269Z,43.09
2023-05-09T16:42:49.529Z,43.24
2023-05-09T16:45:16.408Z,43.57
2023-05-09T16:47:43.276Z,43.72
2023-05-09T16:50:10.802Z,43.93
2023-05-09T16:52:37.821Z,44.11
2023-05-09T16:55:05.051Z,44.19
2023-05-09T16:57:31.980Z,44.27
2023-05-09T16:59:58.771Z,44.35
2023-05-09T17:02:25.739Z,44.48
2023-05-09T17:04:52.778Z,44.40
2023-05-09T17:07:20.137Z,44.51
2023-05-09T17:09:48.637Z,44.71
2023-05-09T17:12:18.132Z,44.93
2023-05-09T17:14:46.122Z,45.10
2023-05-09T17:17:13.762Z,45.27
2023-05-09T17:19:41.114Z,45.41
2023-05-09T17:22:08.847Z,45.58
2023-05-09T17:24:35.761Z,45.66
2023-05-09T17:27:02.951Z,45.82
2023-05-09T17:29:30.756Z,45.92
2023-05-09T17:32:00.552Z,46.01
2023-05-09T17:34:47.062Z,46.10
2023-05-09T17:37:13.964Z,46.27
2023-05-09T17:39:42.315Z,46.41
2023-05-09T17:42:09.302Z,46.50
2023-05-09T17:44:36.471Z,46.62
2023-05-09T17:47:03.453Z,46.69
2023-05-09T17:49:30.432Z,46.80
2023-05-09T17:51:57.531Z,46.90
2023-05-09T17:54:24.686Z,46.98
2023-05-09T17:56:59.192Z,47.04
2023-05-09T17:59:26.062Z,47.11
2023-05-09T18:01:53.139Z,47.17
2023-05-09T18:04:20.119Z,47.21
2023-05-09T18:06:49.485Z,47.30
2023-05-09T18:09:16.456Z,47.39
2023-05-09T18:11:43.735Z,47.40
2023-05-09T18:14:11.012Z,47.49
2023-05-09T18:16:38.135Z,47.57
2023-05-09T18:19:05.304Z,47.62
2023-05-09T18:21:32.475Z,47.70
2023-05-09T18:23:59.916Z,47.79
2023-05-09T18:26:27.497Z,48.02
2023-05-09T18:28:54.358Z,48.18
2023-05-09T18:31:21.160Z,48.35
2023-05-09T18:33:48.138Z,48.55
2023-05-09T18:36:15.265Z,48.68
2023-05-09T18:38:43.323Z,48.78
2023-05-09T18:41:15.617Z,48.83
2023-05-09T18:43:46.238Z,48.92
2023-05-09T18:46:17.748Z,48.97
2023-05-09T18:48:45.809Z,49.08
2023-05-09T18:51:13.645Z,49.10
2023-05-09T18:53:41.159Z,49.22
2023-05-09T18:56:09.614Z,49.22
2023-05-09T18:58:37.309Z,49.33
2023-05-09T19:01:05.577Z,49.45
2023-05-09T19:03:33.398Z,49.44
2023-05-09T19:06:00.978Z,49.55
2023-05-09T19:08:29.313Z,49.67
2023-05-09T19:10:57.386Z,49.66
2023-05-09T19:13:25.641Z,49.71
2023-05-09T19:15:56.603Z,49.75
2023-05-09T19:18:25.482Z,49.78
2023-05-09T19:20:54.835Z,49.80
2023-05-09T19:23:23.483Z,49.86
2023-05-09T19:25:53.831Z,49.92
2023-05-09T19:28:22.988Z,50.02
2023-05-09T19:30:51.342Z,50.11
2023-05-09T19:33:20.184Z,50.26
2023-05-09T19:35:48.645Z,50.20
2023-05-09T19:38:16.762Z,50.30
2023-05-09T19:40:45.141Z,50.25
2023-05-09T19:43:13.626Z,50.29
2023-05-09T19:45:43.813Z,50.28
2023-05-09T19:48:15.863Z,50.38
2023-05-09T19:50:46.460Z,50.42
2023-05-09T19:53:14.407Z,50.43
2023-05-09T19:55:47.065Z,50.40
2023-05-09T19:58:17.436Z,50.49
2023-05-09T20:00:45.482Z,50.61
2023-05-09T20:03:12.907Z,50.71
2023-05-09T20:08:26.209Z,50.74
2023-05-09T20:10:54.413Z,50.73
2023-05-09T20:13:22.059Z,50.88
2023-05-09T20:15:50.340Z,50.97
2023-05-09T20:18:17.996Z,50.99
2023-05-09T20:20:45.788Z,51.14
2023-05-09T20:23:14.085Z,51.27
2023-05-09T20:25:41.834Z,51.33
2023-05-09T20:28:12.349Z,51.41
2023-05-09T20:30:39.842Z,51.58
2023-05-09T20:33:07.327Z,51.70
2023-05-09T20:35:35.660Z,51.88
2023-05-09T20:38:05.229Z,52.03
2023-05-09T20:40:32.714Z,52.08
2023-05-09T20:43:00.160Z,52.17
2023-05-09T20:45:28.005Z,52.21
2023-05-09T20:47:55.734Z,52.35
2023-05-09T20:50:22.917Z,52.37
2023-05-09T20:52:49.765Z,52.45
2023-05-09T20:55:16.764Z,52.34
2023-05-09T20:57:43.615Z,52.53
2023-05-09T21:00:10.857Z,52.66
2023-05-09T21:02:37.605Z,52.65
2023-05-09T21:05:06.158Z,52.76
2023-05-09T21:07:33.181Z,52.84
2023-05-09T21:10:00.036Z,52.89
2023-05-09T21:12:26.895Z,53.02
2023-05-09T21:14:53.644Z,53.01
2023-05-09T21:17:20.562Z,53.01
2023-05-09T21:19:51.538Z,53.12
2023-05-09T21:22:18.441Z,53.25
2023-05-09T21:24:45.332Z,53.38
2023-05-09T21:27:12.146Z,53.41
2023-05-09T21:29:38.911Z,53.53
2023-05-09T21:32:05.855Z,53.52
2023-05-09T21:34:32.913Z,53.44
2023-05-09T21:36:59.683Z,53.50
2023-05-09T21:39:26.398Z,53.63
2023-05-09T21:41:53.146Z,53.62
2023-05-09T21:44:19.902Z,53.75
2023-05-09T21:46:46.674Z,53.81
2023-05-09T21:49:16.667Z,53.87
2023-05-09T21:51:43.579Z,53.81
2023-05-09T21:54:11.132Z,54.01
2023-05-09T21:56:38.040Z,54.05
2023-05-09T21:59:04.850Z,53.91
2023-05-09T22:01:31.706Z,54.01
2023-05-09T22:03:58.856Z,53.92
2023-05-09T22:06:25.840Z,54.00
2023-05-09T22:08:52.687Z,54.10
2023-05-09T22:11:19.529Z,54.12
2023-05-09T22:13:46.223Z,54.11
2023-05-09T22:16:13.366Z,54.07
2023-05-09T22:18:40.216Z,54.27
2023-05-09T22:21:07.105Z,54.20
2023-05-09T22:23:33.870Z,54.35
2023-05-09T22:26:00.641Z,54.32
2023-05-09T22:28:27.346Z,54.35
2023-05-09T22:30:54.086Z,54.24
2023-05-09T22:33:20.864Z,54.27
2023-05-09T22:35:47.924Z,54.51
2023-05-09T22:38:14.658Z,54.25
2023-05-09T22:40:41.468Z,54.28
2023-05-09T22:43:08.218Z,54.32
2023-05-09T22:45:35.104Z,54.38
2023-05-09T22:48:02.246Z,54.30
2023-05-09T22:50:29.154Z,54.16
2023-05-09T22:52:55.928Z,54.18
2023-05-09T22:55:23.168Z,54.30
2023-05-09T22:57:49.923Z,54.26
2023-05-09T23:00:17.296Z,54.42
2023-05-09T23:02:44.299Z,54.47
2023-05-09T23:05:11.252Z,54.52
2023-05-09T23:07:38.391Z,54.60
2023-05-09T23:10:05.984Z,54.65
2023-05-09T23:12:32.854Z,54.66
2023-05-09T23:14:59.914Z,54.44
2023-05-09T23:17:26.803Z,54.58
2023-05-09T23:19:53.629Z,54.71
2023-05-09T23:22:20.447Z,54.66
2023-05-09T23:24:47.320Z,54.81
2023-05-09T23:27:14.286Z,54.84
2023-05-09T23:29:41.100Z,54.78
2023-05-09T23:32:07.947Z,54.86
2023-05-09T23:34:36.736Z,55.01
2023-05-09T23:37:04.376Z,54.95
2023-05-09T23:39:31.600Z,54.92
2023-05-09T23:41:58.417Z,55.16
2023-05-09T23:44:25.694Z,55.08
2023-05-09T23:46:52.521Z,55.11
2023-05-09T23:49:19.343Z,55.13
2023-05-09T23:51:46.094Z,55.15
2023-05-09T23:54:12.870Z,55.15
2023-05-09T23:56:40.809Z,55.11
2023-05-09T23:59:10.821Z,55.12
